M I D A S
Marine Information and Data Acquisition System
Tripno 490 of the Zeeleeuw from 2003-04-11 08:23:34 to 2003-04-11 16:45:56
Back to CruiseResearch ActivitiesStationsMapUnderway DataData graphs

EquipmentUnitsComment
TimeDGPSUTC
LatitudeDGPSDM.mWGS84
LongitudeDGPSDM.mWGS84
HeadingGyrodeg 
SOGDGPSknotsSpeed over ground
COGDGPSdegCourse over ground
DepthEcho soundermeters200 kHz
Missing or incorrect values are displayed as -999
Navigation data collected by the RV Zeeleeuw from 2003-04-11 08:23:34 to 2003-04-11 16:45:56
Time Latitude Longitude Heading SOG COG Depth
2003-04-11 08:24:36 51°39.07 3°19.14 55.6 14.9 49 27.1
2003-04-11 08:25:36 51°39.22 3°19.45 59.5 14.8 53 27.1
2003-04-11 08:26:36 51°39.37 3°19.76 57.4 14.8 51 27.4
2003-04-11 08:27:36 51°39.53 3°20.07 57.4 14.8 52 27.4
2003-04-11 08:28:36 51°39.68 3°20.38 57.3 14.9 51 27.9
2003-04-11 08:29:36 51°39.84 3°20.69 57.2 14.8 51 28.2
2003-04-11 08:30:36 51°40 3°20.99 57.5 14.7 51 28.3
2003-04-11 08:31:36 51°40.15 3°21.3 57.6 14.7 51 28.1
2003-04-11 08:32:36 51°40.31 3°21.6 57.3 14.7 51 29.5
2003-04-11 08:33:36 51°40.46 3°21.91 57.8 14.8 51 30.4
2003-04-11 08:34:36 51°40.61 3°22.22 57.5 14.7 51 30.6
2003-04-11 08:35:36 51°40.77 3°22.53 57.5 14.8 52 30.1
2003-04-11 08:36:36 51°40.92 3°22.83 57.1 14.9 51 31.2
2003-04-11 08:37:36 51°41.08 3°23.14 57.6 14.7 52 31.9
2003-04-11 08:38:36 51°41.23 3°23.45 57.9 14.9 51 31.5
2003-04-11 08:39:36 51°41.39 3°23.76 56 14.9 50 32.1
2003-04-11 08:40:36 51°41.55 3°24.06 56.7 14.9 50 32
2003-04-11 08:41:36 51°41.71 3°24.37 56.8 14.8 50 32.2
2003-04-11 08:42:36 51°41.87 3°24.67 56.6 14.9 50 31.4
2003-04-11 08:43:36 51°42.03 3°24.97 56.4 14.9 50 30
2003-04-11 08:44:36 51°42.19 3°25.28 56.2 14.8 49 29.3
2003-04-11 08:45:36 51°42.35 3°25.58 56.2 15 50 29.3
2003-04-11 08:46:36 51°42.51 3°25.89 56 14.9 50 30.5
2003-04-11 08:47:36 51°42.66 3°26.2 56.6 14.9 50 28.6
2003-04-11 08:48:36 51°42.82 3°26.5 56.4 14.8 50 30.7
2003-04-11 08:49:36 51°42.98 3°26.81 56.5 15 51 30
2003-04-11 08:50:36 51°43.14 3°27.12 56.2 14.9 50 29.6
2003-04-11 08:51:36 51°43.3 3°27.43 56 15 50 28.5
2003-04-11 08:52:36 51°43.44 3°27.75 62.4 14.8 56 27.5
2003-04-11 08:53:36 51°43.58 3°28.08 62 14.8 56 26.3
2003-04-11 08:54:36 51°43.72 3°28.41 63.6 14.8 57 24.2
2003-04-11 08:55:36 51°43.85 3°28.74 62.6 14.9 56 21.5
2003-04-11 08:56:36 51°43.99 3°29.08 62.9 14.9 57 21.1
2003-04-11 08:57:36 51°44.11 3°29.42 67.1 14.9 61 20
2003-04-11 08:58:36 51°44.24 3°29.77 67.2 14.9 61 20.7
2003-04-11 08:59:36 51°44.37 3°30.11 66.5 15 59 20.2
2003-04-11 09:00:36 51°44.49 3°30.46 67 15 59 20.5
2003-04-11 09:01:36 51°44.62 3°30.8 66 15.1 59 22.2
2003-04-11 09:02:36 51°44.75 3°31.16 66.5 15.1 60 20.5
2003-04-11 09:03:36 51°44.88 3°31.51 66 15.1 59 23.1
2003-04-11 09:04:36 51°45.01 3°31.86 66.7 15 60 21.8
2003-04-11 09:05:36 51°45.13 3°32.21 66.3 15.2 60 21
2003-04-11 09:06:36 51°45.26 3°32.56 66.5 15.1 59 21.4
2003-04-11 09:07:36 51°45.38 3°32.91 66.5 15.1 59 20.9
2003-04-11 09:08:36 51°45.51 3°33.25 66.7 14.7 60 18.2
2003-04-11 09:09:36 51°45.63 3°33.59 65.8 14.7 60 19.5
2003-04-11 09:10:36 51°45.76 3°33.93 66.6 14.7 60 19.6
2003-04-11 09:11:36 51°45.88 3°34.27 66 14.6 60 18.8
2003-04-11 09:12:36 51°46 3°34.62 71.5 14.7 65 18.2
2003-04-11 09:13:36 51°46.08 3°34.98 76.1 14.8 70 16.3
2003-04-11 09:14:36 51°46.16 3°35.36 81.2 14.5 74 15.8
2003-04-11 09:15:36 51°46.23 3°35.73 81.6 14.5 74 14.6
2003-04-11 09:16:36 51°46.29 3°36.11 80.9 14.5 74 13.9
2003-04-11 09:17:36 51°46.37 3°36.48 76.7 14.7 70 13.4
2003-04-11 09:18:36 51°46.46 3°36.85 75 14.7 69 14
2003-04-11 09:19:36 51°46.55 3°37.21 73.5 14.8 67 13.6
2003-04-11 09:20:36 51°46.65 3°37.58 74.7 14.8 67 14.2
2003-04-11 09:21:36 51°46.75 3°37.94 72.2 14.8 66 14.4
2003-04-11 09:22:36 51°46.85 3°38.3 72.3 14.7 66 14.7
2003-04-11 09:23:36 51°46.95 3°38.65 71.8 14.7 65 14.7
2003-04-11 09:24:36 51°47.06 3°39.01 72.4 14.7 66 14.9
2003-04-11 09:25:36 51°47.16 3°39.35 65.7 12 59 14.9
2003-04-11 09:26:36 51°47.25 3°39.5 41 6.1 37 15
2003-04-11 09:27:36 51°47.3 3°39.55 23.5 2.4 29 15.2
2003-04-11 09:28:36 51°47.34 3°39.57 21 2.2 27 15.3
2003-04-11 09:29:36 51°47.37 3°39.6 20.6 2.1 28 15.1
2003-04-11 09:30:36 51°47.4 3°39.63 20.8 2 29 15.2
2003-04-11 09:31:36 51°47.42 3°39.65 22.4 1.9 29 15.4
2003-04-11 09:32:36 51°47.45 3°39.68 22.8 1.7 30 15.3
2003-04-11 09:33:36 51°47.47 3°39.7 23.4 1.7 31 14.9
2003-04-11 09:34:36 51°47.5 3°39.72 23.8 1.5 32 15.4
2003-04-11 09:35:36 51°47.52 3°39.76 40.2 3 39 15.4
2003-04-11 09:36:36 51°47.55 3°39.85 103 4.2 87 15.6
2003-04-11 09:37:36 51°47.52 3°39.94 164.7 3.6 145 15.2
2003-04-11 09:38:36 51°47.46 3°39.95 184.1 3.6 171 15.1
2003-04-11 09:39:36 51°47.4 3°39.93 198.4 3.7 188 14.7
2003-04-11 09:40:36 51°47.35 3°39.91 215.5 3 212 14.7
2003-04-11 09:41:36 51°47.32 3°39.85 238 2.9 242 14.7
2003-04-11 09:42:36 51°47.29 3°39.79 222.5 2.7 225 14.8
2003-04-11 09:43:36 51°47.26 3°39.74 222.3 2.4 223 14.4
2003-04-11 09:44:36 51°47.24 3°39.7 216.2 2 214 14.7
2003-04-11 09:45:36 51°47.21 3°39.68 208.4 1.9 202 14.8
2003-04-11 09:46:36 51°47.18 3°39.66 211.8 1.9 209 15
2003-04-11 09:47:36 51°47.15 3°39.63 220.7 1.9 222 15
2003-04-11 09:48:36 51°47.13 3°39.59 218.4 1.9 218 14.8
2003-04-11 09:49:36 51°47.11 3°39.56 221.7 2 224 14.9
2003-04-11 09:50:36 51°47.08 3°39.52 225.1 2 230 14.8
2003-04-11 09:51:36 51°47.06 3°39.48 223.5 2 229 14.6
2003-04-11 09:52:36 51°47.04 3°39.44 228.2 2.1 234 14.7
2003-04-11 09:53:36 51°47.02 3°39.39 230.6 2.1 239 14.9
2003-04-11 09:54:36 51°47 3°39.35 224.1 2.1 227 14.7
2003-04-11 09:55:36 51°46.98 3°39.31 219.5 2.1 221 14.8
2003-04-11 09:56:36 51°46.95 3°39.27 227.8 2.1 231 14.4
2003-04-11 09:57:36 51°46.93 3°39.22 234.9 2.2 241 14.6
2003-04-11 09:58:36 51°46.92 3°39.17 233.9 2.2 241 14.4
2003-04-11 09:59:36 51°46.9 3°39.11 233.6 2.2 241 14.4
2003-04-11 10:00:36 51°46.88 3°39.07 230 2.1 236 14.5
2003-04-11 10:01:36 51°46.86 3°39.02 230.8 2.1 237 14.4
2003-04-11 10:02:36 51°46.84 3°38.97 236.6 2.1 244 14.6
2003-04-11 10:03:36 51°46.83 3°38.92 236.7 2.1 244 14.5
2003-04-11 10:04:36 51°46.81 3°38.87 235.6 2.1 245 14.6
2003-04-11 10:05:36 51°46.79 3°38.82 234.5 2.1 242 14.8
2003-04-11 10:06:36 51°46.78 3°38.77 234.3 2.1 242 14.6
2003-04-11 10:07:36 51°46.76 3°38.72 233.7 2.1 240 14.5
2003-04-11 10:08:36 51°46.74 3°38.67 233.8 2.1 239 14.4
2003-04-11 10:09:36 51°46.73 3°38.62 233.1 2.1 240 14.2
2003-04-11 10:10:36 51°46.71 3°38.57 231.7 2.1 238 14.2
2003-04-11 10:11:36 51°46.69 3°38.52 235.7 2.2 247 14.1
2003-04-11 10:12:36 51°46.68 3°38.47 248.2 2 263 14.3
2003-04-11 10:13:36 51°46.69 3°38.42 267 2 286 14.4
2003-04-11 10:14:36 51°46.71 3°38.36 284.9 2.3 304 14.3
2003-04-11 10:15:36 51°46.73 3°38.32 296.4 2.5 314 14.4
2003-04-11 10:16:36 51°46.76 3°38.28 296.8 2 323 14.4
2003-04-11 10:17:36 51°46.79 3°38.25 298.7 1.7 330 14.5
2003-04-11 10:18:36 51°46.81 3°38.23 301.3 1.6 338 14.8
2003-04-11 10:19:36 51°46.84 3°38.22 305.5 1.5 346 14.7
2003-04-11 10:20:36 51°46.86 3°38.22 308 1.4 352 14.6
2003-04-11 10:21:36 51°46.88 3°38.21 305.7 1.4 345 14.6
2003-04-11 10:22:36 51°46.91 3°38.19 299.9 1.6 337 14.7
2003-04-11 10:23:36 51°46.93 3°38.18 294.6 1.6 333 14.8
2003-04-11 10:24:36 51°46.95 3°38.16 290.3 1.6 331 15.1
2003-04-11 10:25:36 51°46.98 3°38.13 285.9 1.6 326 15.1
2003-04-11 10:26:36 51°47 3°38.11 280.8 1.6 323 15
2003-04-11 10:27:36 51°47.02 3°38.08 275.4 1.4 318 14.9
2003-04-11 10:28:36 51°47.03 3°38.05 267.6 1.3 311 15.2
2003-04-11 10:29:36 51°47.04 3°38.03 251.2 0.9 295 15.2
2003-04-11 10:30:36 51°47.05 3°38.01 238.9 0.8 282 15.2
2003-04-11 10:31:36 51°47.05 3°37.99 223.8 0.5 254 15.3
2003-04-11 10:32:36 51°47.04 3°37.98 203.8 0.4 204 15.4
2003-04-11 10:33:36 51°47.03 3°37.99 179.1 0.6 142 15.2
2003-04-11 10:34:36 51°47.03 3°38.01 149.6 1.2 105 15.1
2003-04-11 10:35:36 51°47.02 3°38.05 132 1.8 93 15.1
2003-04-11 10:36:36 51°47.02 3°38.1 132.1 1.9 96 14.7
2003-04-11 10:37:36 51°47.02 3°38.16 134.4 1.9 100 14.8
2003-04-11 10:38:36 51°47.01 3°38.2 136.1 1.6 97 15
2003-04-11 10:39:36 51°47.01 3°38.25 113.7 2 83 14.9
2003-04-11 10:40:36 51°47.03 3°38.31 73.2 2.6 54 15
2003-04-11 10:41:36 51°47.07 3°38.35 31.9 2.8 25 15
2003-04-11 10:42:36 51°47.11 3°38.36 354.3 2.4 1 14.7
2003-04-11 10:43:36 51°47.14 3°38.36 338.6 2 354 15
2003-04-11 10:44:36 51°47.17 3°38.35 323.7 1.6 353 15.4
2003-04-11 10:45:36 51°47.2 3°38.35 320.8 1.3 3 15.2
2003-04-11 10:46:36 51°47.22 3°38.35 317.9 1.2 6 15.4
2003-04-11 10:47:36 51°47.24 3°38.36 314.2 1.1 12 15.3
2003-04-11 10:48:36 51°47.25 3°38.37 308.4 1.1 21 15.4
2003-04-11 10:49:36 51°47.27 3°38.38 307.5 1.1 29 15.5
2003-04-11 10:50:36 51°47.28 3°38.4 315.1 1 37 13.9
2003-04-11 10:51:36 51°47.3 3°38.41 321.7 1 40 15.7
2003-04-11 10:52:36 51°47.31 3°38.43 320.9 1.2 13 15.8
2003-04-11 10:53:36 51°47.33 3°38.39 274.9 2.3 294 15.8
2003-04-11 10:54:36 51°47.32 3°38.31 237.1 4.8 240 15.4
2003-04-11 10:55:36 51°47.23 3°38.12 234.7 11.8 233 15.3
2003-04-11 10:56:36 51°47.11 3°37.83 241.9 13.1 241 15.4
2003-04-11 10:57:36 51°47 3°37.53 242 13.2 240 14.8
2003-04-11 10:58:36 51°46.89 3°37.22 243.5 13.2 241 15.2
2003-04-11 10:59:36 51°46.78 3°36.91 242.4 13.2 241 15.4
2003-04-11 11:00:36 51°46.67 3°36.61 243.7 13.2 242 14.6
2003-04-11 11:01:36 51°46.56 3°36.3 242.6 13.2 241 14.9
2003-04-11 11:02:36 51°46.45 3°35.99 240.1 13.2 240 15.3
2003-04-11 11:03:36 51°46.35 3°35.68 242.2 13.3 240 15.3
2003-04-11 11:04:36 51°46.24 3°35.37 242.1 13.4 240 15.2
2003-04-11 11:05:36 51°46.16 3°35.03 253 13.5 253 16.7
2003-04-11 11:06:36 51°46.1 3°34.68 256.2 13.6 255 16.5
2003-04-11 11:07:36 51°46.03 3°34.33 255.4 13.5 253 17.4
2003-04-11 11:08:36 51°45.96 3°33.98 253.5 13.6 251 19.5
2003-04-11 11:09:36 51°45.87 3°33.66 244.1 13.5 243 21.2
2003-04-11 11:10:36 51°45.77 3°33.33 249.8 13.5 248 22.1
2003-04-11 11:11:36 51°45.69 3°32.99 253.3 13.7 251 22.7
2003-04-11 11:12:36 51°45.62 3°32.64 253.2 13.8 253 23.8
2003-04-11 11:13:36 51°45.7 3°32.32 322.1 13.9 319 24.5
2003-04-11 11:14:36 51°45.92 3°32.36 37.2 13.9 34 25.2
2003-04-11 11:15:36 51°45.96 3°32.7 112.6 13.5 108 25
2003-04-11 11:16:36 51°45.77 3°32.81 190.2 12.9 190 23.9
2003-04-11 11:17:36 51°45.59 3°32.61 220.9 13.5 219 23.2
2003-04-11 11:18:36 51°45.43 3°32.37 228.4 13.6 227 22
2003-04-11 11:19:36 51°45.27 3°32.09 229.5 13.8 228 22.7
2003-04-11 11:20:36 51°45.12 3°31.82 229.8 13.8 227 22.4
2003-04-11 11:21:36 51°44.97 3°31.54 229.9 13.8 229 21.9
2003-04-11 11:22:36 51°44.83 3°31.25 234.3 13.8 233 21.9
2003-04-11 11:23:36 51°44.69 3°30.96 235.8 13.7 233 21.7
2003-04-11 11:24:36 51°44.55 3°30.66 234.6 13.9 233 21.3
2003-04-11 11:25:36 51°44.41 3°30.37 235.5 13.5 234 20.6
2003-04-11 11:26:36 51°44.28 3°30.08 234.6 13.5 234 20.7
2003-04-11 11:27:36 51°44.15 3°29.79 234.7 13.4 234 19.7
2003-04-11 11:28:36 51°44.01 3°29.51 235 13.4 232 19.2
2003-04-11 11:29:36 51°43.88 3°29.22 234.8 13.5 233 17.3
2003-04-11 11:30:36 51°43.74 3°28.93 232.9 13.6 232 17.1
2003-04-11 11:31:36 51°43.59 3°28.65 230.9 13.6 229 18.1
2003-04-11 11:32:36 51°43.44 3°28.4 227.7 13.6 225 18.4
2003-04-11 11:33:36 51°43.26 3°28.17 217.8 13.5 217 18.1
2003-04-11 11:34:36 51°43.07 3°27.98 207.6 13.5 206 17.2
2003-04-11 11:35:36 51°42.87 3°27.83 205 13.6 203 16.4
2003-04-11 11:36:36 51°42.66 3°27.69 200.6 12.8 201 15.5
2003-04-11 11:37:36 51°42.46 3°27.56 202.3 13.3 201 13.5
2003-04-11 11:38:36 51°42.25 3°27.44 200.4 13.2 200 15.4
2003-04-11 11:39:36 51°42.04 3°27.31 200.9 13.3 201 15.7
2003-04-11 11:40:36 51°41.84 3°27.19 200.8 12.8 201 16
2003-04-11 11:41:36 51°41.63 3°27.06 200.3 13.4 200 17.1
2003-04-11 11:42:36 51°41.42 3°26.93 200.4 13.7 201 17.5
2003-04-11 11:43:36 51°41.21 3°26.8 201.3 13.5 202 17.7
2003-04-11 11:44:36 51°41.01 3°26.66 208.3 13.6 207 16.2
2003-04-11 11:45:36 51°40.81 3°26.48 209 13.7 209 17.3
2003-04-11 11:46:36 51°40.61 3°26.31 211.4 13.7 210 17.7
2003-04-11 11:47:36 51°40.42 3°26.13 214.7 13.6 213 18.9
2003-04-11 11:48:36 51°40.24 3°25.88 225.7 13.9 225 19.6
2003-04-11 11:49:36 51°40.09 3°25.61 228.6 13.8 227 19.8
2003-04-11 11:50:36 51°39.93 3°25.34 226.8 13.9 227 20.4
2003-04-11 11:51:36 51°39.77 3°25.07 226.6 13.7 226 20.9
2003-04-11 11:52:36 51°39.62 3°24.81 227.4 13.6 227 21.2
2003-04-11 11:53:36 51°39.46 3°24.55 228.2 13.5 227 21.3
2003-04-11 11:54:36 51°39.3 3°24.28 226.4 13.7 226 21.8
2003-04-11 11:55:36 51°39.15 3°24.02 225.8 13.7 226 22
2003-04-11 11:56:36 51°38.98 3°23.76 222.2 13.5 222 22.3
2003-04-11 11:57:36 51°38.81 3°23.52 218.9 13.5 218 22.5
2003-04-11 11:58:36 51°38.63 3°23.31 216.8 13.7 216 22
2003-04-11 11:59:36 51°38.43 3°23.13 209.7 13.8 208 21.2
2003-04-11 12:00:36 51°38.22 3°23.01 196.7 13.3 196 19.9
2003-04-11 12:01:36 51°38.01 3°22.93 190.3 13.1 191 18.3
2003-04-11 12:02:36 51°37.79 3°22.91 180.4 13.1 180 17
2003-04-11 12:03:36 51°37.57 3°22.91 179.1 13 179 15.8
2003-04-11 12:04:36 51°37.36 3°22.96 166.9 13 166 15.2
2003-04-11 12:05:36 51°37.16 3°23.06 163 12.9 163 12.6
2003-04-11 12:06:36 51°36.95 3°23.16 162.1 12.9 162 12.2
2003-04-11 12:07:36 51°36.75 3°23.28 160.1 12.9 160 12.2
2003-04-11 12:08:36 51°36.55 3°23.4 156.2 13 156 12
2003-04-11 12:09:36 51°36.35 3°23.56 153.8 13.3 154 11.5
2003-04-11 12:10:36 51°36.15 3°23.71 155.4 12.8 155 12
2003-04-11 12:11:36 51°35.96 3°23.86 154.5 12.9 154 11.7
2003-04-11 12:12:36 51°35.79 3°24.04 138.7 11.2 137 10.8
2003-04-11 12:13:36 51°35.7 3°24.22 133.9 6.8 132 12.3
2003-04-11 12:14:36 51°35.64 3°24.31 146.9 3.9 146 11.5
2003-04-11 12:15:36 51°35.57 3°24.37 153.1 6.2 153 11
2003-04-11 12:16:36 51°35.47 3°24.47 145.8 7.2 144 11.5
2003-04-11 12:17:36 51°35.37 3°24.59 140.6 7.4 138 11.8
2003-04-11 12:18:36 51°35.28 3°24.71 146.2 7.4 146 11.4
2003-04-11 12:19:36 51°35.18 3°24.83 148.7 7.4 147 10.9
2003-04-11 12:20:36 51°35.09 3°24.91 147.6 5 147 10.8
2003-04-11 12:21:36 51°35.05 3°24.96 140.7 1.6 144 10.9
2003-04-11 12:22:36 51°35.04 3°24.97 155.8 0.5 168 11.2
2003-04-11 12:23:36 51°35.04 3°24.97 170.6 0.4 206 11
2003-04-11 12:24:36 51°35.03 3°24.96 180.4 0.4 222 11.2
2003-04-11 12:25:36 51°35.03 3°24.95 183.2 0.4 228 11.2
2003-04-11 12:26:36 51°35.02 3°24.94 185.6 0.4 229 11.2
2003-04-11 12:27:36 51°35.02 3°24.93 189.4 0.5 237 11.2
2003-04-11 12:28:36 51°35.01 3°24.92 189.9 0.5 226 11.2
2003-04-11 12:29:36 51°35 3°24.91 187.5 0.6 215 11.3
2003-04-11 12:30:36 51°34.99 3°24.91 183.8 0.6 205 11.3
2003-04-11 12:31:36 51°34.98 3°24.9 179.8 0.8 203 11.2
2003-04-11 12:32:36 51°34.97 3°24.89 174.8 0.8 194 11.4
2003-04-11 12:33:36 51°34.95 3°24.89 166.5 0.8 183 11.4
2003-04-11 12:34:36 51°34.94 3°24.89 156.1 0.8 165 11.4
2003-04-11 12:35:36 51°34.93 3°24.9 148.7 0.8 152 11.4
2003-04-11 12:36:36 51°34.92 3°24.91 141.5 0.8 145 11.4
2003-04-11 12:37:36 51°34.91 3°24.93 135.9 0.8 138 11.3
2003-04-11 12:38:36 51°34.9 3°24.94 129.1 0.9 122 11.4
2003-04-11 12:39:36 51°34.89 3°24.96 121.1 0.9 117 11.3
2003-04-11 12:40:36 51°34.89 3°24.99 110.8 0.9 98 11.3
2003-04-11 12:41:36 51°34.89 3°25.01 100.1 0.9 81 11.2
2003-04-11 12:42:36 51°34.89 3°25.03 89.2 0.9 73 11.1
2003-04-11 12:43:36 51°34.9 3°25.05 77.2 1 55 11.2
2003-04-11 12:44:36 51°34.91 3°25.07 65.2 1 43 11.1
2003-04-11 12:45:36 51°34.92 3°25.09 53.4 1.1 28 11
2003-04-11 12:46:36 51°34.94 3°25.1 51.3 1.4 31 10.9
2003-04-11 12:47:36 51°34.96 3°25.13 71.3 1.7 55 10.5
2003-04-11 12:48:36 51°34.97 3°25.18 96.4 1.7 87 10.4
2003-04-11 12:49:36 51°34.96 3°25.22 123.4 1.8 124 10.4
2003-04-11 12:50:36 51°34.93 3°25.25 150.3 2 155 10.5
2003-04-11 12:51:36 51°34.9 3°25.26 173.7 2.2 179 10.5
2003-04-11 12:52:36 51°34.86 3°25.25 187.2 2.4 194 10.6
2003-04-11 12:53:36 51°34.82 3°25.24 172 2.3 180 10.7
2003-04-11 12:54:36 51°34.79 3°25.26 130.4 1.9 136 10.7
2003-04-11 12:55:36 51°34.77 3°25.31 119.3 2.1 122 10.6
2003-04-11 12:56:36 51°34.75 3°25.36 123.2 2.3 124 10.5
2003-04-11 12:57:36 51°34.73 3°25.41 125.3 2.5 125 10.6
2003-04-11 12:58:36 51°34.7 3°25.47 126.2 2.6 129 10.4
2003-04-11 12:59:36 51°34.68 3°25.52 127 2.6 131 10.1
2003-04-11 13:00:36 51°34.65 3°25.57 135.9 2.7 139 10.2
2003-04-11 13:01:36 51°34.61 3°25.61 144.5 2.8 148 10.3
2003-04-11 13:02:36 51°34.57 3°25.64 152.4 2.8 158 10.3
2003-04-11 13:03:36 51°34.52 3°25.67 162.9 3 166 10.3
2003-04-11 13:04:36 51°34.47 3°25.68 170.5 2.9 172 10.4
2003-04-11 13:05:36 51°34.42 3°25.68 174.7 2.9 177 10.3
2003-04-11 13:06:36 51°34.37 3°25.7 162.6 2.9 167 10.5
2003-04-11 13:07:36 51°34.33 3°25.72 159.1 3 162 10.6
2003-04-11 13:08:36 51°34.28 3°25.75 151.7 3 156 10.7
2003-04-11 13:09:36 51°34.24 3°25.79 131.1 2.6 138 10.6
2003-04-11 13:10:36 51°34.22 3°25.84 122.5 2.1 131 10.9
2003-04-11 13:11:36 51°34.2 3°25.88 121.7 1.8 132 11.1
2003-04-11 13:12:36 51°34.18 3°25.91 124.5 1.6 137 11.2
2003-04-11 13:13:36 51°34.16 3°25.93 128.9 1.4 145 11.3
2003-04-11 13:14:36 51°34.14 3°25.95 133.2 1.4 147 11.3
2003-04-11 13:15:36 51°34.12 3°25.97 138 1.3 155 11.4
2003-04-11 13:16:36 51°34.1 3°25.98 142.7 1.3 161 11.4
2003-04-11 13:17:36 51°34.08 3°25.99 150.1 1.4 170 11.4
2003-04-11 13:18:36 51°34.05 3°25.99 156.1 1.4 175 11.3
2003-04-11 13:19:36 51°34.03 3°25.99 159.5 1.4 178 11.5
2003-04-11 13:20:36 51°34.01 3°26 163.1 1.3 180 11.9
2003-04-11 13:21:36 51°33.99 3°25.99 167.8 1.3 182 12.1
2003-04-11 13:22:36 51°33.97 3°25.99 172.7 1.3 186 12.3
2003-04-11 13:23:36 51°33.95 3°25.99 176.3 1.3 187 12.4
2003-04-11 13:24:36 51°33.92 3°25.98 180.1 1.3 190 12.5
2003-04-11 13:25:36 51°33.9 3°25.97 184.7 1.4 191 12.6
2003-04-11 13:26:36 51°33.88 3°25.97 188.1 1.3 192 12.6
2003-04-11 13:27:36 51°33.86 3°25.96 190.8 1.3 192 12.7
2003-04-11 13:28:36 51°33.84 3°25.95 193.7 1.3 197 12.7
2003-04-11 13:29:36 51°33.82 3°25.94 198.8 1.1 196 12.6
2003-04-11 13:30:36 51°33.81 3°25.93 203.5 0.9 196 12.6
2003-04-11 13:31:36 51°33.79 3°25.92 205.9 0.9 197 12.6
2003-04-11 13:32:36 51°33.78 3°25.91 207.5 1.2 199 12.7
2003-04-11 13:33:36 51°33.75 3°25.89 220.3 1.7 211 12.9
2003-04-11 13:34:36 51°33.73 3°25.86 248.7 2.5 235 13.2
2003-04-11 13:35:36 51°33.73 3°25.78 306.8 3.4 291 13.6
2003-04-11 13:36:36 51°33.78 3°25.67 321.8 7.6 312 13.9
2003-04-11 13:37:36 51°33.88 3°25.4 298.4 13.3 291 12.3
2003-04-11 13:38:36 51°33.96 3°25.05 297.4 13.7 291 12
2003-04-11 13:39:36 51°34.04 3°24.71 295.5 13.8 290 12.4
2003-04-11 13:40:36 51°34.12 3°24.36 295.1 13.9 290 11.3
2003-04-11 13:41:36 51°34.19 3°24.01 295.2 13.9 290 10.1
2003-04-11 13:42:36 51°34.27 3°23.66 296 13.9 290 9.3
2003-04-11 13:43:36 51°34.34 3°23.31 289.8 14 284 9.1
2003-04-11 13:44:36 51°34.38 3°22.94 284.7 14.1 280 9.2
2003-04-11 13:45:36 51°34.42 3°22.57 285.9 14 280 8.8
2003-04-11 13:46:36 51°34.46 3°22.2 285.5 14 280 8.5
2003-04-11 13:47:36 51°34.51 3°21.83 285.6 14.1 280 8.5
2003-04-11 13:48:36 51°34.55 3°21.46 285.8 14.2 280 8.8
2003-04-11 13:49:36 51°34.59 3°21.09 286.5 14.2 281 8.6
2003-04-11 13:50:36 51°34.63 3°20.71 285.8 14.3 280 8.5
2003-04-11 13:51:36 51°34.68 3°20.33 285.6 14.5 280 11.3
2003-04-11 13:52:36 51°34.72 3°19.95 286.3 14.4 280 12.8
2003-04-11 13:53:36 51°34.72 3°19.57 277.2 14.3 272 13.9
2003-04-11 13:54:36 51°34.73 3°19.21 274 11.7 269 15.1
2003-04-11 13:55:36 51°34.77 3°19.04 323.7 4.8 311 14.7
2003-04-11 13:56:36 51°34.82 3°19 3.4 2.6 346 14.1
2003-04-11 13:57:36 51°34.85 3°19.01 31.7 1.7 14 14.7
2003-04-11 13:58:36 51°34.88 3°19.02 34.8 2 22 13.7
2003-04-11 13:59:36 51°34.92 3°19.06 47.8 3.2 41 15
2003-04-11 14:00:36 51°34.95 3°19.13 66 3.5 60 15.3
2003-04-11 14:01:36 51°34.97 3°19.22 73.7 3.3 71 15.6
2003-04-11 14:02:36 51°34.99 3°19.3 71.8 2.9 70 15.1
2003-04-11 14:03:36 51°35.01 3°19.36 66.9 2.4 65 14.8
2003-04-11 14:04:36 51°35.03 3°19.41 52.8 2.1 48 15.3
2003-04-11 14:05:36 51°35.06 3°19.45 48 2.1 42 15.2
2003-04-11 14:06:36 51°35.08 3°19.49 55.1 2.2 50 15.7
2003-04-11 14:07:36 51°35.1 3°19.54 59.3 2.2 55 15.9
2003-04-11 14:08:36 51°35.13 3°19.57 42 2 33 15.8
2003-04-11 14:09:36 51°35.16 3°19.6 47 2.2 38 14.1
2003-04-11 14:10:36 51°35.18 3°19.65 59 2.3 53 15
2003-04-11 14:11:36 51°35.2 3°19.7 56.1 2.3 51 15.6
2003-04-11 14:12:36 51°35.23 3°19.74 53.2 2.4 46 15.4
2003-04-11 14:13:36 51°35.25 3°19.79 61.5 2.4 56 14.5
2003-04-11 14:14:36 51°35.27 3°19.85 61.5 2.3 58 14.9
2003-04-11 14:15:36 51°35.3 3°19.9 50 2.3 44 14.8
2003-04-11 14:16:36 51°35.32 3°19.94 51.8 2.3 44 14.7
2003-04-11 14:17:36 51°35.35 3°19.98 52.2 2.3 46 14.8
2003-04-11 14:18:36 51°35.38 3°20.03 53 2.3 45 14.7
2003-04-11 14:19:36 51°35.4 3°20.08 54.6 2.4 46 14.6
2003-04-11 14:20:36 51°35.43 3°20.12 55.5 2.4 49 14.5
2003-04-11 14:21:36 51°35.45 3°20.17 55.3 2.3 49 14.4
2003-04-11 14:22:36 51°35.48 3°20.21 48.5 2.3 43 14.2
2003-04-11 14:23:36 51°35.51 3°20.25 42.6 2.2 35 14.3
2003-04-11 14:24:36 51°35.54 3°20.28 42 2.2 33 14.4
2003-04-11 14:25:36 51°35.57 3°20.31 44.9 2.3 36 14.4
2003-04-11 14:26:36 51°35.6 3°20.35 47.7 2.3 40 14.3
2003-04-11 14:27:36 51°35.63 3°20.39 49.3 2.3 43 14.3
2003-04-11 14:28:36 51°35.65 3°20.44 50.4 2.3 45 14.2
2003-04-11 14:29:36 51°35.68 3°20.48 52.6 2.2 48 14.1
2003-04-11 14:30:36 51°35.7 3°20.52 54.4 2.2 50 14.1
2003-04-11 14:31:36 51°35.73 3°20.57 56.6 2.2 53 14
2003-04-11 14:32:36 51°35.75 3°20.61 67.5 1.8 67 14.2
2003-04-11 14:33:36 51°35.75 3°20.66 80.1 1.5 88 13.9
2003-04-11 14:34:36 51°35.75 3°20.69 89.7 1.4 103 13.8
2003-04-11 14:35:36 51°35.74 3°20.73 95.2 1.4 111 13.8
2003-04-11 14:36:36 51°35.73 3°20.77 98.3 1.6 113 13.7
2003-04-11 14:37:36 51°35.72 3°20.8 98.7 1.4 117 13.6
2003-04-11 14:38:36 51°35.71 3°20.83 98.7 1.2 121 13.4
2003-04-11 14:39:36 51°35.7 3°20.85 98.7 1.1 129 13.3
2003-04-11 14:40:36 51°35.69 3°20.87 98.2 1 132 13.3
2003-04-11 14:41:36 51°35.68 3°20.89 98.6 0.9 137 13.2
2003-04-11 14:42:36 51°35.66 3°20.91 98.3 0.9 140 13.2
2003-04-11 14:43:36 51°35.65 3°20.92 96.5 1 132 13.2
2003-04-11 14:44:36 51°35.65 3°20.94 67.3 0.7 92 13
2003-04-11 14:45:36 51°35.66 3°20.95 36.5 0.6 23 13.1
2003-04-11 14:46:36 51°35.67 3°20.95 5.9 0.9 332 13.1
2003-04-11 14:47:36 51°35.68 3°20.92 323.2 2.5 300 13.1
2003-04-11 14:48:36 51°35.67 3°20.81 249.9 5.5 243 13.4
2003-04-11 14:49:36 51°35.57 3°20.6 231.6 13.1 228 13.4
2003-04-11 14:50:36 51°35.42 3°20.31 234.3 14.6 231 13.7
2003-04-11 14:51:36 51°35.26 3°20.01 234.6 14.5 231 14.1
2003-04-11 14:52:36 51°35.11 3°19.71 235.4 14.5 231 14.8
2003-04-11 14:53:36 51°34.96 3°19.4 234.4 14.5 231 14
2003-04-11 14:54:36 51°34.81 3°19.1 234.4 14.6 231 13.5
2003-04-11 14:55:36 51°34.65 3°18.81 235.4 14.4 231 14.9
2003-04-11 14:56:36 51°34.5 3°18.5 233.5 14.6 230 15.4
2003-04-11 14:57:36 51°34.35 3°18.21 234.5 14.4 230 14.2
2003-04-11 14:58:36 51°34.2 3°17.9 235.7 14.5 232 14.7
2003-04-11 14:59:36 51°34.04 3°17.6 235.1 14.5 231 14.1
2003-04-11 15:00:36 51°33.89 3°17.3 235.8 14.5 231 14.5
2003-04-11 15:01:36 51°33.74 3°17.01 235.8 14.5 231 14.6
2003-04-11 15:02:36 51°33.58 3°16.71 234.9 14.4 229 14.9
2003-04-11 15:03:36 51°33.43 3°16.42 236.2 14.4 230 15.7
2003-04-11 15:04:36 51°33.28 3°16.12 237.2 14.4 232 15.7
2003-04-11 15:05:36 51°33.13 3°15.82 239.1 14.3 233 15
2003-04-11 15:06:36 51°32.99 3°15.51 238.1 14.3 233 16.3
2003-04-11 15:07:36 51°32.84 3°15.21 235.2 14.4 231 16.4
2003-04-11 15:08:36 51°32.65 3°14.98 215.7 14.3 212 16.5
2003-04-11 15:09:36 51°32.46 3°14.75 222.8 14.2 220 16
2003-04-11 15:10:36 51°32.29 3°14.48 229.3 14.4 226 16.2
2003-04-11 15:11:36 51°32.13 3°14.19 233.7 14.3 229 16.5
2003-04-11 15:12:36 51°31.97 3°13.91 233.5 14.4 228 16.6
2003-04-11 15:13:36 51°31.81 3°13.62 233 14.4 228 16.8
2003-04-11 15:14:36 51°31.65 3°13.34 232.2 14.5 227 17
2003-04-11 15:15:36 51°31.5 3°13.04 235 14.5 230 17.4
2003-04-11 15:16:36 51°31.34 3°12.74 236.4 14.5 231 17.6
2003-04-11 15:17:36 51°31.19 3°12.45 235.2 14.5 231 17.4
2003-04-11 15:18:36 51°31.04 3°12.15 234.8 14.5 230 17.3
2003-04-11 15:19:36 51°30.88 3°11.85 235.2 14.6 230 17.3
2003-04-11 15:20:36 51°30.73 3°11.55 235.2 14.6 231 17
2003-04-11 15:21:36 51°30.57 3°11.26 234.1 14.4 230 17.1
2003-04-11 15:22:36 51°30.44 3°10.94 243 14.4 237 17.4
2003-04-11 15:23:36 51°30.3 3°10.62 240.6 14.4 235 17.8
2003-04-11 15:24:36 51°30.17 3°10.3 240.3 14.4 236 17.8
2003-04-11 15:25:36 51°30.03 3°9.99 239.2 14.4 234 17.7
2003-04-11 15:26:36 51°29.89 3°9.67 240.1 14.5 236 17.5
2003-04-11 15:27:36 51°29.76 3°9.35 239.5 14.5 235 17.3
2003-04-11 15:28:36 51°29.62 3°9.03 239.7 14.5 235 16.8
2003-04-11 15:29:36 51°29.48 3°8.71 241.7 14.5 236 16.7
2003-04-11 15:30:36 51°29.35 3°8.4 240.9 14.5 236 17
2003-04-11 15:31:36 51°29.21 3°8.08 240.6 14.6 236 16.9
2003-04-11 15:32:36 51°29.07 3°7.76 239.9 14.6 235 16.9
2003-04-11 15:33:36 51°28.93 3°7.44 238.9 14.6 234 16.8
2003-04-11 15:34:36 51°28.79 3°7.12 240.6 14.6 235 16.4
2003-04-11 15:35:36 51°28.66 3°6.79 241.2 14.6 236 16.2
2003-04-11 15:36:36 51°28.52 3°6.47 241.9 14.6 236 16.5
2003-04-11 15:37:36 51°28.38 3°6.15 239.8 14.6 236 16.4
2003-04-11 15:38:36 51°28.25 3°5.83 240.6 14.6 236 15.9
2003-04-11 15:39:36 51°28.11 3°5.5 241.1 14.7 237 15.6
2003-04-11 15:40:36 51°27.97 3°5.18 240.5 14.7 235 15.1
2003-04-11 15:41:36 51°27.83 3°4.86 241.1 14.6 235 14.5
2003-04-11 15:42:36 51°27.7 3°4.54 239.6 14.7 235 14.7
2003-04-11 15:43:36 51°27.56 3°4.21 239.8 14.6 235 15.2
2003-04-11 15:44:36 51°27.42 3°3.89 240.9 14.8 236 15.4
2003-04-11 15:45:36 51°27.28 3°3.56 241.4 14.6 236 15.3
2003-04-11 15:46:36 51°27.15 3°3.24 240.2 14.8 236 14.6
2003-04-11 15:47:36 51°27.01 3°2.91 239.8 14.7 235 14.4
2003-04-11 15:48:36 51°26.87 3°2.59 239.1 14.7 236 13.6
2003-04-11 15:49:36 51°26.73 3°2.26 241.1 14.7 237 13.2
2003-04-11 15:50:36 51°26.6 3°1.94 240.2 14.6 236 11.4
2003-04-11 15:51:36 51°26.46 3°1.61 240.3 14.8 237 12.6
2003-04-11 15:52:36 51°26.32 3°1.28 239.6 14.8 236 12.7
2003-04-11 15:53:36 51°26.16 3°1 220.2 14.7 217 13.4
2003-04-11 15:54:36 51°25.95 3°0.79 214.7 14.9 212 13.4
2003-04-11 15:55:36 51°25.74 3°0.58 215 14.9 212 15
2003-04-11 15:56:36 51°25.53 3°0.37 215.3 14.8 212 16.1
2003-04-11 15:57:36 51°25.32 3°0.17 214.2 14.6 210 16.5
2003-04-11 15:58:36 51°25.11 2°59.96 214.4 14.6 211 16.9
2003-04-11 15:59:36 51°24.91 2°59.76 216.2 14.6 212 18.3
2003-04-11 16:00:36 51°24.7 2°59.55 213 14.7 210 19
2003-04-11 16:01:36 51°24.49 2°59.36 213.7 14.6 210 15.7
2003-04-11 16:02:36 51°24.28 2°59.16 213 14.6 210 15.7
2003-04-11 16:03:36 51°24.07 2°58.97 213.1 14.7 211 15.3
2003-04-11 16:04:36 51°23.86 2°58.77 210.8 14.7 209 16.6
2003-04-11 16:05:36 51°23.65 2°58.57 212.6 14.6 211 15.9
2003-04-11 16:06:36 51°23.44 2°58.37 213.6 14.7 211 18.2
2003-04-11 16:07:36 51°23.23 2°58.17 213.7 15 212 18.7
2003-04-11 16:08:36 51°23.02 2°57.97 213.2 14.7 211 18.9
2003-04-11 16:09:36 51°22.81 2°57.77 212.6 14.4 211 18.9
2003-04-11 16:10:36 51°22.61 2°57.55 216.8 14.5 215 18.8
2003-04-11 16:11:36 51°22.41 2°57.33 218.1 14.5 215 18.6
2003-04-11 16:12:36 51°22.21 2°57.11 217.3 14.5 214 18.5
2003-04-11 16:13:36 51°22.01 2°56.89 217.9 14.5 214 18.2
2003-04-11 16:14:36 51°21.82 2°56.67 218.2 14.4 215 17.9
2003-04-11 16:15:36 51°21.62 2°56.45 217.8 14.5 215 17.4
2003-04-11 16:16:36 51°21.42 2°56.23 218.8 14.4 216 17
2003-04-11 16:17:36 51°21.23 2°56 219.6 14.5 216 16.5
2003-04-11 16:18:36 51°21.03 2°55.77 217.8 14.6 215 15.9
2003-04-11 16:19:36 51°20.84 2°55.55 218.2 14.3 216 15.6
2003-04-11 16:20:36 51°20.64 2°55.32 218.8 14.7 216 15.3
2003-04-11 16:21:36 51°20.45 2°55.09 219.8 14.5 217 14.9
2003-04-11 16:22:36 51°20.25 2°54.86 219.2 14.6 217 14.5
2003-04-11 16:23:36 51°20.06 2°54.63 219.1 14.5 217 14.4
2003-04-11 16:24:36 51°19.87 2°54.4 219.4 14.5 216 13.7
2003-04-11 16:25:36 51°19.67 2°54.18 218.2 14.5 216 13.5
2003-04-11 16:26:36 51°19.48 2°53.95 220 14.4 216 13.2
2003-04-11 16:27:36 51°19.28 2°53.73 219.6 14.5 216 13
2003-04-11 16:28:36 51°19.09 2°53.5 219.1 14.5 215 12.8
2003-04-11 16:29:36 51°18.88 2°53.29 215.8 14.7 213 12.6
2003-04-11 16:30:36 51°18.68 2°53.09 215.5 14.7 212 12.3
2003-04-11 16:31:36 51°18.47 2°52.88 214.6 14.5 212 12.1
2003-04-11 16:32:36 51°18.26 2°52.69 211.2 14.7 209 11.8
2003-04-11 16:33:36 51°18.05 2°52.51 207.6 14.6 205 11.4
2003-04-11 16:34:36 51°17.82 2°52.38 201.3 14.6 199 11.2
2003-04-11 16:35:36 51°17.58 2°52.28 195.9 14.6 193 11.2
2003-04-11 16:36:36 51°17.34 2°52.23 184.8 14.4 181 11.4
2003-04-11 16:37:36 51°17.12 2°52.35 150.5 14.1 149 11.1
2003-04-11 16:38:36 51°16.93 2°52.57 146.4 14.1 145 11
2003-04-11 16:39:36 51°16.73 2°52.77 151.4 14.4 149 11.1
2003-04-11 16:40:36 51°16.52 2°52.96 153.1 14.2 151 12.9
2003-04-11 16:41:36 51°16.32 2°53.15 150.3 14.3 149 12.8
2003-04-11 16:42:36 51°16.12 2°53.34 151.2 13 149 12.8
2003-04-11 16:43:36 51°15.94 2°53.5 151.7 12.7 151 12.7
2003-04-11 16:44:36 51°15.76 2°53.67 150.5 12.6 150 12.2
2003-04-11 16:45:36 51°15.58 2°53.84 150.4 12.6 149 11.6